Time;durP1;ratioP1;P1;durP2;ratioP2;P2;SDS_P1;SDS_P2;PMS_P1;PMS_P2;Temp;Humidity;BMP_temperature;BMP_pressure;BME280_temperature;BME280_humidity;BME280_pressure;Samples;Min_cycle;Max_cycle;Signal;HPM_P1;HPM_P2
2021/11/07 00:06:54;;;;;;;4.57;3.05;;;;;;;;;;10420360;28;20064;-87
2021/11/07 00:11:58;;;;;;;6.80;3.45;;;;;;;;;;10425102;28;20040;-87
2021/11/07 00:16:59;;;;;;;4.55;3.25;;;;;;;;;;10412598;28;20060;-87
2021/11/07 07:53:40;;;;;;;20.88;3.00;;;;;;;;;;10475180;28;20638;-85
2021/11/07 07:58:41;;;;;;;26.58;2.42;;;;;;;;;;10458413;28;20056;-85
2021/11/07 08:03:41;;;;;;;4.65;2.10;;;;;;;;;;10445160;28;20103;-86
2021/11/07 08:08:42;;;;;;;9.68;2.13;;;;;;;;;;10459041;28;20056;-85
2021/11/07 08:13:42;;;;;;;2.00;1.60;;;;;;;;;;10447441;28;20410;-85
2021/11/07 08:18:43;;;;;;;7.25;1.83;;;;;;;;;;10480885;28;20029;-85
2021/11/07 08:23:48;;;;;;;6.82;1.50;;;;;;;;;;10443424;28;20037;-85
2021/11/07 08:28:49;;;;;;;3.30;1.77;;;;;;;;;;10443586;28;20037;-86
2021/11/07 08:33:50;;;;;;;2.22;1.65;;;;;;;;;;10454034;28;20052;-85
2021/11/07 08:39:06;;;;;;;6.60;2.00;;;;;;;;;;10461501;28;20037;-85
2021/11/07 09:00:27;;;;;;;1.85;1.67;;;;;;;;;;10433938;28;20037;-81
2021/11/07 09:05:35;;;;;;;2.55;1.88;;;;;;;;;;10419922;28;20053;-80
2021/11/07 09:10:36;;;;;;;3.50;1.70;;;;;;;;;;10423142;28;20098;-79
2021/11/07 09:15:41;;;;;;;2.13;1.75;;;;;;;;;;10426044;28;20037;-80
2021/11/07 09:26:00;;;;;;;4.63;2.00;;;;;;;;;;10431539;28;20052;-86
2021/11/07 09:51:34;;;;;;;4.97;1.83;;;;;;;;;;10419164;28;20507;-80
2021/11/07 09:56:35;;;;;;;3.20;1.77;;;;;;;;;;10418129;28;20116;-80
2021/11/07 10:01:35;;;;;;;1.92;1.60;;;;;;;;;;10417496;28;20434;-80
2021/11/07 10:06:43;;;;;;;2.87;1.83;;;;;;;;;;10419093;28;20474;-80
2021/11/07 10:12:10;;;;;;;2.15;1.30;;;;;;;;;;10420278;28;20442;-81
2021/11/07 10:17:35;;;;;;;3.55;1.70;;;;;;;;;;10418545;28;20036;-81
2021/11/07 10:22:36;;;;;;;2.05;1.58;;;;;;;;;;10406509;28;20029;-81
2021/11/07 10:27:39;;;;;;;2.03;1.52;;;;;;;;;;10416710;28;20038;-81
2021/11/07 10:32:43;;;;;;;2.50;1.73;;;;;;;;;;10420622;28;20025;-81
2021/11/07 10:53:15;;;;;;;1.67;1.58;;;;;;;;;;10421209;28;20061;-81
2021/11/07 10:58:16;;;;;;;2.10;1.90;;;;;;;;;;10428170;28;20037;-81
2021/11/07 11:03:19;;;;;;;3.20;1.90;;;;;;;;;;10411191;28;20095;-81
2021/11/07 11:08:34;;;;;;;1.95;1.60;;;;;;;;;;10421775;28;20033;-81
2021/11/07 11:14:15;;;;;;;2.75;1.70;;;;;;;;;;10424699;28;20029;-81
2021/11/07 11:25:22;;;;;;;2.65;1.80;;;;;;;;;;10404687;28;20551;-80
2021/11/07 11:35:18;;;;;;;3.53;1.88;;;;;;;;;;10442912;28;20025;-81
2021/11/07 11:45:37;;;;;;;2.30;1.73;;;;;;;;;;10413321;28;20480;-80
2021/11/07 11:50:55;;;;;;;2.45;1.63;;;;;;;;;;10417609;28;20367;-80
2021/11/07 11:56:15;;;;;;;2.28;1.63;;;;;;;;;;10419358;28;20033;-80
2021/11/07 12:01:38;;;;;;;4.85;1.60;;;;;;;;;;10413104;28;20844;-80
2021/11/07 12:11:49;;;;;;;1.92;1.63;;;;;;;;;;10413444;28;20429;-80
2021/11/07 12:16:58;;;;;;;1.90;1.70;;;;;;;;;;10412318;28;20371;-83
2021/11/07 12:22:03;;;;;;;1.70;1.52;;;;;;;;;;10413527;28;20033;-83
2021/11/07 12:27:36;;;;;;;6.07;2.08;;;;;;;;;;10441761;23;20046;-83
2021/11/07 12:32:39;;;;;;;3.15;2.00;;;;;;;;;;10369061;28;20540;-83
2021/11/07 12:43:14;;;;;;;3.15;1.80;;;;;;;;;;10364031;28;20042;-83
2021/11/07 12:48:35;;;;;;;2.33;1.67;;;;;;;;;;10376937;28;20030;-83
2021/11/07 12:54:03;;;;;;;2.67;1.60;;;;;;;;;;10399173;28;20030;-84
2021/11/07 12:59:08;;;;;;;2.92;1.60;;;;;;;;;;10380641;28;20036;-83
2021/11/07 13:04:08;;;;;;;1.90;1.70;;;;;;;;;;10376806;28;20030;-83
2021/11/07 13:09:09;;;;;;;2.53;1.58;;;;;;;;;;10389056;28;20048;-83
2021/11/07 13:14:32;;;;;;;2.28;1.70;;;;;;;;;;10376020;28;20517;-83
2021/11/07 13:19:58;;;;;;;4.68;1.92;;;;;;;;;;10366402;28;20040;-84
2021/11/07 13:30:20;;;;;;;5.70;1.60;;;;;;;;;;10375317;28;20054;-84
2021/11/07 13:35:24;;;;;;;1.60;1.48;;;;;;;;;;10372072;28;20029;-84
2021/11/07 13:40:32;;;;;;;3.13;1.80;;;;;;;;;;10371617;28;20030;-80
2021/11/07 13:45:35;;;;;;;4.00;1.58;;;;;;;;;;10365824;28;20040;-81
2021/11/07 13:50:36;;;;;;;2.10;1.60;;;;;;;;;;10380506;28;20032;-81
2021/11/07 13:55:37;;;;;;;3.33;1.50;;;;;;;;;;10372494;28;20041;-81
2021/11/07 14:00:38;;;;;;;15.10;2.13;;;;;;;;;;10374502;28;20045;-81
2021/11/07 14:05:47;;;;;;;2.50;1.67;;;;;;;;;;10384132;28;20029;-81
2021/11/07 14:10:47;;;;;;;12.90;2.17;;;;;;;;;;10380421;28;20019;-81
2021/11/07 14:15:51;;;;;;;7.37;2.17;;;;;;;;;;10376045;28;20029;-81
2021/11/07 14:21:00;;;;;;;3.70;1.70;;;;;;;;;;10372956;28;20505;-81
2021/11/07 14:26:26;;;;;;;;;;;;;;;;;;10365348;28;20052;-81
2021/11/07 14:31:38;;;;;;;3.50;1.70;;;;;;;;;;10372243;28;20263;-80
2021/11/07 14:36:48;;;;;;;4.65;1.70;;;;;;;;;;10368816;28;20061;-82
2021/11/07 14:42:05;;;;;;;2.45;1.55;;;;;;;;;;10380197;28;20117;-82
2021/11/07 14:47:14;;;;;;;6.97;1.98;;;;;;;;;;10382208;28;20041;-82
2021/11/07 15:02:45;;;;;;;4.57;1.63;;;;;;;;;;10382255;28;20484;-82
2021/11/07 15:07:50;;;;;;;4.00;1.77;;;;;;;;;;10380194;28;20030;-83
2021/11/07 15:13:51;;;;;;;3.08;1.55;;;;;;;;;;10367970;28;20391;-84
2021/11/07 15:19:05;;;;;;;3.17;1.70;;;;;;;;;;10286038;28;20047;-84
2021/11/07 15:24:11;;;;;;;4.60;1.65;;;;;;;;;;10286137;28;20043;-82
2021/11/07 15:29:15;;;;;;;4.95;1.55;;;;;;;;;;10286396;28;20080;-82
2021/11/07 15:34:32;;;;;;;2.88;1.58;;;;;;;;;;10285745;28;20046;-82
2021/11/07 15:39:33;;;;;;;2.67;1.58;;;;;;;;;;10286332;28;20053;-81
2021/11/07 15:44:43;;;;;;;11.35;2.05;;;;;;;;;;10269814;28;20137;-83
2021/11/07 15:50:20;;;;;;;12.57;2.10;;;;;;;;;;10300993;28;20046;-83
2021/11/07 15:55:37;;;;;;;5.72;1.98;;;;;;;;;;10363467;28;20043;-82
2021/11/07 16:21:25;;;;;;;7.20;2.33;;;;;;;;;;10449898;28;20067;-83
2021/11/07 16:26:26;;;;;;;5.90;1.98;;;;;;;;;;10449918;28;20053;-81
2021/11/07 16:31:33;;;;;;;14.53;2.40;;;;;;;;;;10452314;28;20537;-82
2021/11/07 16:36:42;;;;;;;4.93;2.00;;;;;;;;;;10448508;28;20553;-82
2021/11/07 16:41:49;;;;;;;5.50;2.00;;;;;;;;;;10451124;28;20049;-82
2021/11/07 16:46:55;;;;;;;4.60;2.10;;;;;;;;;;10445846;28;20379;-82
2021/11/07 16:52:17;;;;;;;6.07;2.10;;;;;;;;;;10367065;28;20021;-82
2021/11/07 16:57:21;;;;;;;4.75;2.15;;;;;;;;;;10376171;28;20044;-82
2021/11/07 17:07:32;;;;;;;4.73;2.27;;;;;;;;;;10378671;28;20030;-82
2021/11/07 17:12:36;;;;;;;8.50;2.53;;;;;;;;;;10377888;28;20030;-83
2021/11/07 17:18:24;;;;;;;5.85;2.15;;;;;;;;;;10383123;28;20467;-84
2021/11/07 17:24:05;;;;;;;2.60;1.88;;;;;;;;;;10372686;28;20468;-83
2021/11/07 17:33:38;;;;;;;2.72;2.08;;;;;;;;;;10376270;28;20064;-83
2021/11/07 17:49:29;;;;;;;;;;;;;;;;;;10374025;28;20034;-82
2021/11/07 17:59:31;;;;;;;4.63;2.20;;;;;;;;;;10389471;28;20056;-83
2021/11/07 18:04:32;;;;;;;4.15;2.50;;;;;;;;;;10407978;28;20104;-84
2021/11/07 18:09:34;;;;;;;5.50;2.35;;;;;;;;;;10405912;28;20025;-82
2021/11/07 18:14:41;;;;;;;5.03;2.55;;;;;;;;;;10409304;28;20083;-82
2021/11/07 18:19:41;;;;;;;8.93;3.08;;;;;;;;;;10363343;28;20041;-82
2021/11/07 18:24:47;;;;;;;10.10;2.65;;;;;;;;;;10374146;28;20100;-82
2021/11/07 18:29:50;;;;;;;5.90;2.85;;;;;;;;;;10386475;28;20072;-83
2021/11/07 18:34:52;;;;;;;4.65;2.60;;;;;;;;;;10395937;28;20472;-83
2021/11/07 18:39:53;;;;;;;3.67;2.67;;;;;;;;;;10391411;28;20030;-84
2021/11/07 18:44:53;;;;;;;6.03;2.70;;;;;;;;;;10390092;28;20383;-84
2021/11/07 18:49:55;;;;;;;5.20;3.00;;;;;;;;;;10396638;28;20034;-84
2021/11/07 18:54:55;;;;;;;5.22;2.75;;;;;;;;;;10389357;28;20033;-82
2021/11/07 18:59:56;;;;;;;7.50;3.10;;;;;;;;;;10394106;28;20037;-84
2021/11/07 19:04:56;;;;;;;4.47;2.80;;;;;;;;;;10371694;28;20579;-84
2021/11/07 19:10:00;;;;;;;5.37;2.60;;;;;;;;;;10372580;28;20065;-84
2021/11/07 19:15:01;;;;;;;4.45;2.53;;;;;;;;;;10370923;28;20451;-83
2021/11/07 19:20:04;;;;;;;5.43;3.22;;;;;;;;;;10372413;28;20044;-85
2021/11/07 19:25:06;;;;;;;5.55;3.40;;;;;;;;;;10376128;28;20029;-84
2021/11/07 19:30:09;;;;;;;7.20;3.13;;;;;;;;;;10388048;28;20037;-84
2021/11/07 19:35:10;;;;;;;4.80;2.95;;;;;;;;;;10386133;28;20326;-83
2021/11/07 19:40:11;;;;;;;6.07;3.45;;;;;;;;;;10372654;28;20428;-84
2021/11/07 19:45:12;;;;;;;4.57;2.88;;;;;;;;;;10386161;28;20480;-83
2021/11/07 19:50:13;;;;;;;6.80;3.17;;;;;;;;;;10373735;28;20032;-81
2021/11/07 19:55:15;;;;;;;7.35;3.53;;;;;;;;;;10372503;28;20030;-81
2021/11/07 20:10:27;;;;;;;7.43;3.88;;;;;;;;;;10370837;28;20034;-82
2021/11/07 20:15:29;;;;;;;4.43;3.17;;;;;;;;;;10370106;28;20464;-84
2021/11/07 20:20:32;;;;;;;6.68;4.03;;;;;;;;;;10368728;28;20065;-82
2021/11/07 20:25:32;;;;;;;10.00;4.15;;;;;;;;;;10371601;28;20032;-82
2021/11/07 20:30:34;;;;;;;5.35;3.63;;;;;;;;;;10370798;28;20474;-81
2021/11/07 20:35:37;;;;;;;9.90;3.95;;;;;;;;;;10371356;28;20032;-81
2021/11/07 20:40:40;;;;;;;6.38;4.22;;;;;;;;;;10369960;28;20068;-82
2021/11/07 20:46:57;;;;;;;9.02;4.78;;;;;;;;;;10372922;28;20038;-81
2021/11/07 20:51:11;;;;;;;9.18;4.30;;;;;;;;;;10368740;28;20472;-81
2021/11/07 21:07:02;;;;;;;10.52;4.70;;;;;;;;;;10250605;29;20043;-83
2021/11/07 21:12:21;;;;;;;10.05;4.85;;;;;;;;;;10250493;29;20070;-84
2021/11/07 21:18:06;;;;;;;9.40;4.72;;;;;;;;;;10236296;29;20053;-83
2021/11/07 21:23:12;;;;;;;7.90;4.82;;;;;;;;;;10249741;28;20046;-83
2021/11/07 21:28:19;;;;;;;7.00;4.90;;;;;;;;;;10249957;29;20047;-82
2021/11/07 21:33:23;;;;;;;17.15;5.50;;;;;;;;;;10248335;28;20122;-81
2021/11/07 21:38:31;;;;;;;27.73;5.88;;;;;;;;;;10361843;28;20038;-81
2021/11/07 21:43:34;;;;;;;14.20;5.87;;;;;;;;;;10375456;28;20119;-82
2021/11/07 21:48:34;;;;;;;13.55;6.40;;;;;;;;;;10375408;28;20022;-81
2021/11/07 21:53:34;;;;;;;12.32;6.25;;;;;;;;;;10374655;28;20472;-83
2021/11/07 21:58:35;;;;;;;12.57;6.10;;;;;;;;;;10375151;28;20716;-81
2021/11/07 22:03:36;;;;;;;12.10;6.45;;;;;;;;;;10372647;28;20467;-83
2021/11/07 22:08:37;;;;;;;10.73;5.75;;;;;;;;;;10369784;28;20030;-81
2021/11/07 22:13:37;;;;;;;14.63;6.85;;;;;;;;;;10373518;28;20045;-82
2021/11/07 22:18:57;;;;;;;16.40;6.70;;;;;;;;;;10373775;28;20041;-81
2021/11/07 22:24:05;;;;;;;9.77;5.95;;;;;;;;;;10369778;28;20073;-84
2021/11/07 22:34:29;;;;;;;15.57;6.57;;;;;;;;;;10370127;28;20475;-82
2021/11/07 22:39:36;;;;;;;16.92;6.35;;;;;;;;;;10361972;28;20116;-81
2021/11/07 22:44:38;;;;;;;9.35;6.03;;;;;;;;;;10373602;28;20025;-82
2021/11/07 22:49:40;;;;;;;11.50;6.43;;;;;;;;;;10357932;28;20026;-81
2021/11/07 23:00:13;;;;;;;27.90;7.10;;;;;;;;;;10390814;28;20494;-83
2021/11/07 23:10:32;;;;;;;;;;;;;;;;;;10384259;28;20403;-81
2021/11/07 23:15:33;;;;;;;14.18;6.60;;;;;;;;;;10370069;28;19918;-82
2021/11/07 23:20:33;;;;;;;14.73;5.68;;;;;;;;;;10370991;28;20084;-83
2021/11/07 23:25:34;;;;;;;11.82;5.85;;;;;;;;;;10386254;28;20537;-83
2021/11/07 23:30:42;;;;;;;15.05;6.20;;;;;;;;;;10372726;28;20168;-82
2021/11/07 23:35:43;;;;;;;13.13;6.72;;;;;;;;;;10371569;28;20388;-83
2021/11/07 23:40:45;;;;;;;11.95;5.70;;;;;;;;;;10371616;28;20121;-83
2021/11/07 23:45:48;;;;;;;12.30;6.03;;;;;;;;;;10371363;28;20062;-83
2021/11/07 23:55:49;;;;;;;10.40;6.20;;;;;;;;;;10371139;28;20033;-83
